Time;durP1;ratioP1;P1;durP2;ratioP2;P2;SDS_P1;SDS_P2;PMS_P1;PMS_P2;Temp;Humidity;BMP_temperature;BMP_pressure;BME280_temperature;BME280_humidity;BME280_pressure;Samples;Min_cycle;Max_cycle;Signal;HPM_P1;HPM_P2
2022/01/24 00:01:04;;;;;;;42.70;17.03;;;;;;;-3.87;70.05;101912.19;4174202;28;20239;-64
2022/01/24 00:03:31;;;;;;;47.47;16.10;;;;;;;-3.85;70.19;101918.22;4169024;28;20362;-65
2022/01/24 00:05:57;;;;;;;47.07;17.50;;;;;;;-3.80;69.97;101919.91;4180216;28;21606;-63
2022/01/24 00:08:24;;;;;;;42.93;17.30;;;;;;;-3.78;69.98;101919.03;4177968;28;21020;-64
2022/01/24 00:10:52;;;;;;;47.87;18.97;;;;;;;-3.83;69.81;101919.06;4178964;28;20230;-64
2022/01/24 00:16:17;;;;;;;56.03;19.87;;;;;;;-3.96;70.44;101920.06;4187090;28;21574;-63
2022/01/24 00:26:55;;;;;;;57.10;21.57;;;;;;;-3.86;70.96;101926.91;4173514;28;20297;-64
2022/01/24 00:29:23;;;;;;;59.30;21.50;;;;;;;-3.86;71.26;101936.47;4159459;28;20651;-64
2022/01/24 00:31:51;;;;;;;57.30;21.97;;;;;;;-3.77;71.26;101935.47;4159804;28;20353;-65
2022/01/24 00:34:18;;;;;;;53.23;20.93;;;;;;;-3.70;70.73;101934.53;4169785;28;20239;-66
2022/01/24 00:36:48;;;;;;;52.93;22.40;;;;;;;-3.63;70.20;101939.69;4186734;28;20331;-64
2022/01/24 00:39:15;;;;;;;56.80;21.40;;;;;;;-3.59;69.94;101945.69;4171900;28;20358;-66
2022/01/24 00:41:56;;;;;;;60.80;23.60;;;;;;;-3.64;69.97;101943.13;4172278;28;20257;-64
2022/01/24 00:44:45;;;;;;;60.70;21.90;;;;;;;-3.61;69.49;101935.31;4168734;28;20250;-63
2022/01/24 00:47:19;;;;;;;50.43;20.53;;;;;;;-3.64;69.42;101931.88;4183808;28;21691;-68
2022/01/24 00:55:15;;;;;;;55.17;19.97;;;;;;;-3.61;69.53;101932.72;4182337;28;20246;-66
2022/01/24 00:57:42;;;;;;;59.23;20.83;;;;;;;-3.60;69.90;101917.97;4167378;28;20233;-66
2022/01/24 01:00:09;;;;;;;58.13;19.83;;;;;;;-3.61;69.39;101927.53;4164244;28;21688;-62
2022/01/24 01:02:35;;;;;;;50.87;19.20;;;;;;;-3.55;68.91;101923.97;4170925;28;20542;-65
2022/01/24 01:05:13;;;;;;;50.10;19.77;;;;;;;-3.66;69.23;101929.28;4181163;28;20234;-64
2022/01/24 01:07:56;;;;;;;45.37;17.50;;;;;;;-3.56;70.13;101922.22;4161529;28;20235;-65
2022/01/24 01:18:39;;;;;;;56.90;20.53;;;;;;;-3.56;69.79;101918.78;4170251;28;20240;-67
2022/01/24 01:21:09;;;;;;;57.73;21.07;;;;;;;-3.52;70.08;101921.31;4162420;28;21286;-64
2022/01/24 01:23:42;;;;;;;52.27;19.50;;;;;;;-3.53;69.23;101913.56;4157868;28;20338;-66
2022/01/24 01:26:17;;;;;;;52.93;21.30;;;;;;;-3.55;69.62;101908.34;4171666;28;20263;-64
2022/01/24 01:28:47;;;;;;;52.80;20.67;;;;;;;-3.64;70.03;101913.66;4142644;28;20228;-63
2022/01/24 01:31:20;;;;;;;52.77;19.73;;;;;;;-3.59;69.81;101917.06;4172701;28;20350;-64
2022/01/24 01:33:58;;;;;;;52.03;19.67;;;;;;;-3.63;69.53;101917.97;4169955;28;20693;-64
2022/01/24 01:36:57;;;;;;;52.57;19.80;;;;;;;-3.70;69.82;101904.22;4170009;28;20324;-63
2022/01/24 01:55:38;;;;;;;50.97;18.07;;;;;;;-3.74;70.00;101912.06;4172907;28;20242;-64
2022/01/24 01:58:15;;;;;;;49.00;18.37;;;;;;;-3.72;70.16;101911.16;4174927;28;22216;-64
2022/01/24 02:00:46;;;;;;;49.13;18.00;;;;;;;-3.66;70.07;101918.03;4154069;28;20711;-64
2022/01/24 02:03:14;;;;;;;56.53;19.93;;;;;;;-3.76;70.13;101916.41;4162213;28;20228;-65
2022/01/24 02:05:41;;;;;;;49.07;18.47;;;;;;;-3.66;70.38;101918.03;4144466;28;20298;-68
2022/01/24 02:08:07;;;;;;;45.53;18.43;;;;;;;-3.58;70.24;101920.53;4140351;28;20405;-65
2022/01/24 02:10:36;;;;;;;53.90;19.73;;;;;;;-3.50;69.89;101916.09;4182439;28;23197;-65
2022/01/24 02:13:04;;;;;;;51.20;18.30;;;;;;;-3.47;69.04;101918.66;4161892;28;21139;-65
2022/01/24 02:15:50;;;;;;;50.60;18.33;;;;;;;-3.39;68.92;101922.03;4161767;28;21885;-65
2022/01/24 02:18:40;;;;;;;51.17;17.97;;;;;;;-3.38;68.90;101907.28;4155595;28;20691;-64
2022/01/24 02:21:12;;;;;;;50.07;18.53;;;;;;;-3.42;68.62;101920.34;4178032;28;25597;-66
2022/01/24 02:23:46;;;;;;;51.20;18.83;;;;;;;-3.38;69.12;101922.91;4190098;28;20236;-67
2022/01/24 02:26:18;;;;;;;46.63;18.80;;;;;;;-3.45;68.81;101928.16;4190002;28;20227;-66
2022/01/24 02:29:00;;;;;;;47.97;18.63;;;;;;;-3.47;68.98;101924.72;4186294;28;20233;-65
2022/01/24 02:31:44;;;;;;;52.30;18.50;;;;;;;-3.54;68.04;101920.47;4173266;28;22704;-65
2022/01/24 02:34:35;;;;;;;51.20;18.17;;;;;;;-3.48;69.08;101924.75;4171575;28;21406;-66
2022/01/24 02:37:09;;;;;;;49.60;18.60;;;;;;;-3.48;68.76;101920.41;4171430;28;21231;-66
2022/01/24 02:50:47;;;;;;;44.13;17.50;;;;;;;-3.44;69.50;101924.72;4171147;28;21397;-64
2022/01/24 02:53:14;;;;;;;49.67;17.87;;;;;;;-3.43;68.66;101920.34;4192107;28;20437;-64
2022/01/24 02:55:41;;;;;;;53.60;18.07;;;;;;;-3.45;68.66;101922.13;4178584;28;22230;-66
2022/01/24 02:58:08;;;;;;;44.60;17.93;;;;;;;-3.41;68.70;101924.66;4156862;28;22322;-62
2022/01/24 03:00:35;;;;;;;40.70;16.87;;;;;;;-3.41;69.01;101922.06;4172395;28;20279;-64
2022/01/24 03:03:03;;;;;;;42.90;17.20;;;;;;;-3.36;69.00;101916.78;4174337;28;20685;-64
2022/01/24 03:05:31;;;;;;;44.30;16.97;;;;;;;-3.28;68.26;101919.28;4174681;28;21532;-63
2022/01/24 03:07:57;;;;;;;42.20;15.93;;;;;;;-3.32;68.28;101928.03;4171528;28;20621;-67
2022/01/24 03:10:36;;;;;;;38.43;14.83;;;;;;;-3.35;68.61;101928.06;4174576;28;20240;-65
2022/01/24 03:15:42;;;;;;;40.40;14.30;;;;;;;-3.45;68.00;101911.69;4173090;28;20241;-67
2022/01/24 03:18:10;;;;;;;33.47;13.93;;;;;;;-3.45;68.01;101912.56;4170461;28;20238;-64
2022/01/24 03:20:37;;;;;;;38.33;14.40;;;;;;;-3.48;68.73;101923.00;4160931;28;20250;-64
2022/01/24 03:23:04;;;;;;;39.60;15.10;;;;;;;-3.39;67.65;101929.84;4175790;28;20346;-65
2022/01/24 03:25:31;;;;;;;40.37;15.40;;;;;;;-3.40;68.14;101923.75;4187524;28;24307;-64
2022/01/24 03:27:58;;;;;;;44.10;14.83;;;;;;;-3.36;68.33;101926.34;4171909;28;20230;-64
2022/01/24 03:30:25;;;;;;;39.90;15.47;;;;;;;-3.41;68.25;101927.25;4178070;28;20284;-63
2022/01/24 03:32:51;;;;;;;35.00;14.33;;;;;;;-3.30;68.40;101921.94;4176313;28;20237;-63
2022/01/24 03:35:18;;;;;;;38.80;15.00;;;;;;;-3.30;68.31;101921.03;4168976;28;23051;-62
2022/01/24 03:37:45;;;;;;;38.00;15.13;;;;;;;-3.30;67.65;101915.84;4178168;28;20309;-67
2022/01/24 03:40:11;;;;;;;42.47;16.53;;;;;;;-3.40;68.04;101921.16;4172693;28;23055;-65
2022/01/24 03:42:38;;;;;;;39.57;16.17;;;;;;;-3.49;69.20;101916.09;4179501;28;21308;-64
2022/01/24 03:45:07;;;;;;;56.23;16.70;;;;;;;-3.44;68.93;101914.31;4180569;28;22233;-65
2022/01/24 03:50:06;;;;;;;49.07;16.53;;;;;;;-3.51;69.29;101911.78;4164653;28;22256;-64
2022/01/24 03:52:33;;;;;;;43.63;15.23;;;;;;;-3.52;69.53;101910.91;4162919;28;20333;-65
2022/01/24 03:55:01;;;;;;;41.20;16.03;;;;;;;-3.44;69.84;101909.09;4186042;28;20550;-66
2022/01/24 03:57:27;;;;;;;38.40;15.83;;;;;;;-3.50;70.24;101913.50;4167850;28;20671;-66
2022/01/24 03:59:54;;;;;;;48.27;15.87;;;;;;;-3.41;69.66;101910.78;4165639;28;20603;-66
2022/01/24 04:02:23;;;;;;;42.00;16.83;;;;;;;-3.32;69.52;101909.81;4171917;28;20236;-65
2022/01/24 04:04:51;;;;;;;45.63;16.57;;;;;;;-3.46;69.75;101905.66;4171239;28;21840;-68
2022/01/24 04:07:17;;;;;;;45.07;16.33;;;;;;;-3.41;69.44;101908.19;4166056;28;20231;-68
2022/01/24 04:09:44;;;;;;;42.87;16.70;;;;;;;-3.33;69.18;101915.88;4177626;28;21329;-66
2022/01/24 04:12:12;;;;;;;49.00;16.77;;;;;;;-3.34;69.63;101919.38;4174617;28;20429;-63
2022/01/24 04:14:53;;;;;;;50.43;16.03;;;;;;;-3.32;69.27;101907.22;4198796;28;20310;-64
2022/01/24 04:17:26;;;;;;;46.73;16.60;;;;;;;-3.30;68.88;101921.03;4173748;28;20241;-65
2022/01/24 04:22:33;;;;;;;42.23;15.53;;;;;;;-3.25;68.21;101914.06;4179966;28;20229;-63
2022/01/24 04:25:02;;;;;;;37.97;14.37;;;;;;;-3.30;68.84;101910.63;4184081;28;20255;-66
2022/01/24 04:27:29;;;;;;;44.37;16.30;;;;;;;-3.27;69.00;101918.44;4186151;28;21243;-63
2022/01/24 04:29:56;;;;;;;39.57;14.80;;;;;;;-3.24;68.65;101916.63;4180044;28;20234;-66
2022/01/24 04:32:23;;;;;;;37.53;14.73;;;;;;;-3.22;68.71;101911.41;4187425;28;20230;-65
2022/01/24 04:34:51;;;;;;;43.63;15.47;;;;;;;-3.33;68.63;101916.75;4201650;28;21197;-64
2022/01/24 04:37:17;;;;;;;44.37;15.50;;;;;;;-3.31;68.89;101911.53;4192800;28;20243;-69
2022/01/24 04:39:44;;;;;;;38.37;14.83;;;;;;;-3.41;69.12;101923.81;4167510;28;20249;-64
2022/01/24 04:42:22;;;;;;;40.93;14.53;;;;;;;-3.32;68.74;101917.63;4179821;28;20718;-65
2022/01/24 04:45:07;;;;;;;35.87;14.50;;;;;;;-3.27;68.04;101918.44;4174985;28;20394;-65
2022/01/24 04:50:18;;;;;;;44.27;15.63;;;;;;;-3.16;68.51;101920.88;4170025;28;20461;-67
2022/01/24 04:53:43;;;;;;;44.40;14.30;;;;;;;-3.24;68.52;101916.63;4160274;28;20268;-62
2022/01/24 04:55:59;;;;;;;41.20;16.67;;;;;;;-3.26;68.98;101914.94;4181762;28;20233;-65
2022/01/24 04:58:25;;;;;;;45.13;16.47;;;;;;;-3.33;69.40;101931.50;4192815;28;20339;-65
2022/01/24 05:00:52;;;;;;;42.90;15.53;;;;;;;-3.34;69.51;101927.19;4184209;28;20249;-64
2022/01/24 05:03:18;;;;;;;47.07;15.33;;;;;;;-3.33;69.18;101921.94;4174474;28;21375;-65
2022/01/24 05:05:46;;;;;;;44.97;16.30;;;;;;;-3.27;69.63;101931.44;4185458;28;20950;-64
2022/01/24 05:08:14;;;;;;;42.17;16.13;;;;;;;-3.41;70.53;101932.47;4162479;28;21862;-64
2022/01/24 05:10:55;;;;;;;48.90;18.00;;;;;;;-3.35;70.59;101935.88;4182173;28;20232;-64
2022/01/24 05:24:23;;;;;;;51.77;18.93;;;;;;;-3.12;70.16;101936.44;4179838;28;20968;-64
2022/01/24 05:26:49;;;;;;;50.13;18.93;;;;;;;-3.10;70.59;101932.06;4188472;28;21687;-64
2022/01/24 05:29:16;;;;;;;47.27;19.00;;;;;;;-3.21;70.99;101933.94;4172138;28;20240;-66
2022/01/24 05:31:42;;;;;;;54.10;20.17;;;;;;;-3.35;71.35;101928.91;4155090;28;20334;-65
2022/01/24 05:34:09;;;;;;;52.40;18.10;;;;;;;-3.28;70.65;101942.72;4181780;28;21420;-64
2022/01/24 05:36:36;;;;;;;53.80;19.37;;;;;;;-3.41;71.35;101932.47;4176772;28;20686;-66
2022/01/24 05:39:03;;;;;;;55.27;21.33;;;;;;;-3.45;71.82;101943.78;4177028;28;21260;-67
2022/01/24 05:41:29;;;;;;;54.77;19.30;;;;;;;-3.53;71.84;101939.56;4179768;28;20229;-64
2022/01/24 05:43:56;;;;;;;52.70;19.17;;;;;;;-3.55;72.53;101942.19;4180858;28;20233;-67
2022/01/24 05:46:22;;;;;;;47.20;18.67;;;;;;;-3.51;72.21;101943.00;4169519;28;20295;-68
2022/01/24 05:48:49;;;;;;;51.70;19.17;;;;;;;-3.49;72.25;101952.53;4172823;28;20243;-66
2022/01/24 05:51:16;;;;;;;47.67;18.77;;;;;;;-3.57;72.62;101958.69;4178231;28;20255;-67
2022/01/24 05:53:43;;;;;;;58.90;21.20;;;;;;;-3.56;72.53;101948.25;4185517;28;20238;-67
2022/01/24 05:56:09;;;;;;;50.13;20.00;;;;;;;-3.60;73.05;101951.78;4163522;28;20630;-63
2022/01/24 05:58:36;;;;;;;61.83;20.93;;;;;;;-3.64;73.87;101963.09;4178518;28;20336;-66
2022/01/24 06:01:03;;;;;;;57.77;21.40;;;;;;;-3.61;73.29;101963.06;4180937;28;22521;-67
2022/01/24 06:03:30;;;;;;;58.90;20.83;;;;;;;-3.70;74.17;101960.53;4179128;28;20245;-65
2022/01/24 06:05:56;;;;;;;54.80;21.60;;;;;;;-3.68;74.42;101956.19;4188507;28;20344;-65
2022/01/24 06:08:23;;;;;;;59.63;22.03;;;;;;;-3.65;74.26;101962.25;4195828;28;20361;-67
2022/01/24 06:10:49;;;;;;;59.90;22.17;;;;;;;-3.66;74.04;101959.66;4171751;28;20229;-66
2022/01/24 06:13:16;;;;;;;63.17;22.90;;;;;;;-3.74;73.97;101957.13;4178962;28;20872;-66
2022/01/24 06:15:43;;;;;;;70.40;23.47;;;;;;;-3.69;74.09;101954.50;4169483;28;20353;-64
2022/01/24 06:18:10;;;;;;;64.03;22.43;;;;;;;-3.75;73.76;101952.78;4174926;28;20244;-68
2022/01/24 06:20:41;;;;;;;64.90;22.00;;;;;;;-3.74;73.88;101956.28;4170859;28;20236;-69
2022/01/24 06:23:08;;;;;;;59.60;22.03;;;;;;;-3.84;74.56;101953.78;4174324;28;21533;-65
2022/01/24 06:25:34;;;;;;;56.67;20.60;;;;;;;-3.80;73.86;101951.13;4174302;28;21224;-66
2022/01/24 06:28:01;;;;;;;60.73;21.67;;;;;;;-3.86;73.93;101949.47;4169768;28;22769;-64
2022/01/24 06:30:27;;;;;;;58.33;21.77;;;;;;;-3.91;74.55;101949.50;4169164;28;20304;-63
2022/01/24 06:32:54;;;;;;;57.73;21.77;;;;;;;-3.94;74.79;101949.53;4176703;28;20340;-65
2022/01/24 06:35:20;;;;;;;61.73;20.93;;;;;;;-3.92;74.77;101942.56;4181227;28;20463;-65
2022/01/24 06:37:47;;;;;;;55.13;20.43;;;;;;;-3.88;74.62;101946.88;4176436;28;22100;-64
2022/01/24 06:40:13;;;;;;;52.67;21.20;;;;;;;-3.88;74.73;101946.88;4179620;28;20234;-66
2022/01/24 06:42:40;;;;;;;55.47;20.50;;;;;;;-3.80;74.66;101940.72;4174904;28;20234;-65
2022/01/24 06:45:08;;;;;;;65.40;21.67;;;;;;;-3.85;74.85;101948.56;4168207;28;21298;-66
2022/01/24 06:47:34;;;;;;;65.60;21.20;;;;;;;-3.86;75.39;101941.66;4150687;28;20245;-66
2022/01/24 06:50:02;;;;;;;53.57;20.43;;;;;;;-3.76;74.75;101937.22;4200855;28;20248;-67
2022/01/24 06:52:28;;;;;;;53.33;20.43;;;;;;;-3.78;74.82;101938.97;4175609;28;20236;-67
2022/01/24 06:54:55;;;;;;;60.53;20.50;;;;;;;-3.78;75.00;101941.59;4194499;28;20413;-64
2022/01/24 06:57:21;;;;;;;62.97;21.30;;;;;;;-3.75;74.85;101951.94;4172959;28;20325;-64
2022/01/24 06:59:48;;;;;;;59.77;20.13;;;;;;;-3.69;74.75;101949.28;4206716;28;20364;-63
2022/01/24 07:02:15;;;;;;;51.53;19.77;;;;;;;-3.65;73.97;101953.59;4182967;28;21733;-66
2022/01/24 07:04:43;;;;;;;56.23;20.80;;;;;;;-3.69;73.91;101959.69;4175476;28;23596;-63
2022/01/24 07:07:11;;;;;;;54.63;20.17;;;;;;;-3.70;73.87;101963.16;4169582;28;20235;-64
2022/01/24 07:09:39;;;;;;;50.33;18.50;;;;;;;-3.63;73.79;101970.00;4164669;28;20235;-61
2022/01/24 07:12:07;;;;;;;49.47;18.53;;;;;;;-3.64;74.90;101963.09;4177629;28;21825;-64
2022/01/24 07:14:34;;;;;;;56.50;19.93;;;;;;;-3.66;74.58;101972.66;4158921;28;20452;-65
2022/01/24 07:17:10;;;;;;;52.13;20.03;;;;;;;-3.54;74.40;101969.91;4176441;28;20627;-64
2022/01/24 07:19:40;;;;;;;54.53;20.83;;;;;;;-3.56;74.25;101966.47;4174231;28;20234;-64
2022/01/24 07:22:07;;;;;;;60.10;21.00;;;;;;;-3.49;74.19;101962.06;4169928;28;20226;-62
2022/01/24 07:24:34;;;;;;;62.60;21.63;;;;;;;-3.52;74.74;101964.69;4157942;28;20346;-65
2022/01/24 07:27:02;;;;;;;55.30;20.73;;;;;;;-3.40;74.60;101968.00;4155277;28;20236;-64
2022/01/24 07:29:29;;;;;;;57.43;22.03;;;;;;;-3.35;74.57;101975.75;4183948;28;20768;-65
2022/01/24 07:31:55;;;;;;;59.60;20.70;;;;;;;-3.30;73.94;101967.91;4170968;28;23081;-64
2022/01/24 07:34:22;;;;;;;58.20;21.07;;;;;;;-3.28;73.81;101971.34;4177048;28;21368;-63
2022/01/24 07:36:50;;;;;;;55.43;21.00;;;;;;;-3.23;74.32;101977.34;4174939;28;20357;-63
2022/01/24 07:39:17;;;;;;;64.23;22.10;;;;;;;-3.28;73.99;101968.75;4166647;28;22657;-65
2022/01/24 07:41:45;;;;;;;61.03;21.87;;;;;;;-3.33;74.68;101981.81;4173735;28;20272;-65
2022/01/24 07:44:13;;;;;;;57.10;21.07;;;;;;;-3.29;75.10;101982.66;4170540;28;20231;-65
2022/01/24 07:46:40;;;;;;;62.20;22.23;;;;;;;-3.19;74.38;101979.03;4178634;28;20264;-64
2022/01/24 07:49:10;;;;;;;55.37;20.63;;;;;;;-3.16;74.49;101984.25;4165946;28;21585;-62
2022/01/24 07:51:38;;;;;;;61.40;21.83;;;;;;;-3.17;74.06;101979.03;4171965;28;20238;-63
2022/01/24 07:54:05;;;;;;;60.97;21.30;;;;;;;-3.16;74.40;101978.13;4174509;28;20320;-66
2022/01/24 07:56:31;;;;;;;55.97;21.83;;;;;;;-3.10;74.04;101980.69;4160448;28;20655;-64
2022/01/24 07:58:58;;;;;;;64.37;22.10;;;;;;;-3.27;74.87;101973.09;4175395;28;20249;-64
2022/01/24 08:01:26;;;;;;;58.67;21.27;;;;;;;-3.21;74.29;101975.59;4173865;28;20234;-66
2022/01/24 08:03:53;;;;;;;65.40;23.17;;;;;;;-3.15;74.66;101977.28;4176249;28;20361;-65
2022/01/24 08:06:21;;;;;;;68.37;22.57;;;;;;;-3.19;74.24;101973.84;4160432;28;21227;-63
2022/01/24 08:08:47;;;;;;;63.70;22.03;;;;;;;-3.13;74.85;101959.91;4191550;28;23452;-64
2022/01/24 08:11:16;;;;;;;60.83;21.90;;;;;;;-3.20;74.84;101974.72;4165083;28;20331;-64
2022/01/24 08:13:43;;;;;;;60.90;21.80;;;;;;;-3.19;74.78;101969.50;4181965;28;20237;-65
2022/01/24 08:16:10;;;;;;;58.93;22.37;;;;;;;-3.22;74.67;101964.31;4169563;28;20238;-69
2022/01/24 08:18:36;;;;;;;59.13;22.03;;;;;;;-3.10;74.92;101970.25;4174334;28;20361;-64
2022/01/24 08:21:03;;;;;;;59.83;22.37;;;;;;;-3.07;74.44;101960.66;4192925;28;20232;-63
2022/01/24 08:23:30;;;;;;;57.93;21.90;;;;;;;-3.05;75.12;101966.72;4169961;28;25659;-67
2022/01/24 08:25:56;;;;;;;59.77;22.70;;;;;;;-2.87;74.44;101959.53;4202769;28;21327;-66
2022/01/24 08:28:23;;;;;;;67.10;22.20;;;;;;;-2.82;73.75;101957.72;4169358;28;20254;-65
2022/01/24 08:30:51;;;;;;;59.57;22.00;;;;;;;-2.85;73.28;101960.38;4157400;28;22250;-62
2022/01/24 08:33:18;;;;;;;65.70;22.30;;;;;;;-2.81;73.64;101962.03;4169603;28;21963;-63
2022/01/24 08:35:45;;;;;;;58.60;21.80;;;;;;;-2.84;74.00;101965.56;4173942;28;20282;-63
2022/01/24 08:38:12;;;;;;;59.17;21.53;;;;;;;-2.84;73.52;101967.31;4163101;28;20678;-62
2022/01/24 08:40:40;;;;;;;57.07;21.23;;;;;;;-2.78;73.47;101972.44;4187798;28;22227;-63
2022/01/24 08:43:07;;;;;;;65.17;21.90;;;;;;;-2.78;73.08;101967.22;4182396;28;20346;-64
2022/01/24 08:46:11;;;;;;;54.63;22.00;;;;;;;-2.80;73.56;101966.38;4173534;28;21600;-62
2022/01/24 08:48:34;;;;;;;60.53;22.30;;;;;;;-2.66;73.06;101961.84;4181831;28;20463;-66
2022/01/24 08:51:00;;;;;;;61.67;22.20;;;;;;;-2.57;73.46;101955.63;4175038;28;20335;-63
2022/01/24 08:53:33;;;;;;;59.17;21.70;;;;;;;-2.42;72.78;101952.75;4170739;28;20281;-64
2022/01/24 08:56:01;;;;;;;58.80;22.43;;;;;;;-2.31;71.98;101957.81;4183610;28;20233;-62
2022/01/24 08:58:28;;;;;;;66.17;23.03;;;;;;;-2.15;71.40;101964.50;4166565;28;20339;-71
2022/01/24 09:00:55;;;;;;;52.33;19.93;;;;;;;-2.24;71.48;101961.19;4184886;28;25685;-65
2022/01/24 09:03:22;;;;;;;63.80;23.47;;;;;;;-2.14;70.81;101960.13;4190687;28;20233;-65
2022/01/24 09:05:52;;;;;;;65.67;22.47;;;;;;;-2.24;70.71;101950.75;4250358;28;21019;-66
2022/01/24 09:08:19;;;;;;;65.37;22.33;;;;;;;-2.15;71.12;101948.84;4268868;28;20461;-66
2022/01/24 09:10:47;;;;;;;58.23;21.90;;;;;;;-2.09;70.73;101949.63;4251792;28;21604;-64
2022/01/24 09:13:14;;;;;;;59.80;21.23;;;;;;;-2.12;70.63;101945.31;4224079;28;20240;-70
2022/01/24 09:15:41;;;;;;;56.50;20.97;;;;;;;-2.07;70.42;101956.53;4235467;28;20245;-62
2022/01/24 09:18:08;;;;;;;61.33;20.73;;;;;;;-2.04;70.34;101953.00;4280999;28;24972;-64
2022/01/24 09:20:38;;;;;;;67.33;22.27;;;;;;;-1.98;70.14;101950.31;4303873;28;20434;-64
2022/01/24 09:23:06;;;;;;;60.30;20.83;;;;;;;-1.85;70.41;101957.03;4223971;28;22116;-66
2022/01/24 09:25:33;;;;;;;62.70;20.93;;;;;;;-1.91;69.85;101957.97;4168630;28;20357;-68
2022/01/24 09:27:59;;;;;;;53.80;19.60;;;;;;;-1.83;69.04;101955.22;4179375;28;22211;-65
2022/01/24 09:30:26;;;;;;;53.27;19.53;;;;;;;-1.83;69.71;101950.00;4173996;28;20365;-64
2022/01/24 09:32:53;;;;;;;53.83;19.93;;;;;;;-1.87;69.46;101947.47;4175990;28;20226;-64
2022/01/24 09:35:20;;;;;;;56.03;19.63;;;;;;;-1.95;70.12;101955.44;4165144;28;20358;-62
2022/01/24 09:37:49;;;;;;;46.03;19.20;;;;;;;-1.78;69.64;101950.81;4192470;28;20285;-64
2022/01/24 09:40:16;;;;;;;53.93;19.80;;;;;;;-1.88;69.03;101951.00;4152856;28;20237;-64
2022/01/24 09:42:45;;;;;;;53.70;21.03;;;;;;;-1.84;69.54;101948.28;4191106;28;20804;-65
2022/01/24 09:45:13;;;;;;;66.87;19.77;;;;;;;-1.76;69.10;101950.75;4173568;28;20237;-64
2022/01/24 09:47:40;;;;;;;54.07;19.40;;;;;;;-1.66;68.68;101946.22;4157901;28;20282;-64
2022/01/24 09:50:09;;;;;;;56.37;19.47;;;;;;;-1.67;68.95;101950.59;4168375;28;21243;-63
2022/01/24 09:52:39;;;;;;;53.33;20.03;;;;;;;-1.71;68.74;101944.56;4170052;28;22016;-62
2022/01/24 09:55:06;;;;;;;54.90;19.33;;;;;;;-1.74;68.45;101938.53;4162143;28;22774;-61
2022/01/24 09:57:33;;;;;;;54.43;19.90;;;;;;;-1.80;69.12;101944.75;4160609;28;23339;-62
2022/01/24 09:59:59;;;;;;;51.40;19.43;;;;;;;-1.56;68.71;101947.78;4183741;28;20262;-65
2022/01/24 10:02:26;;;;;;;62.73;20.27;;;;;;;-1.41;68.00;101949.22;4196939;28;20300;-61
2022/01/24 10:05:11;;;;;;;52.47;19.67;;;;;;;-1.33;68.01;101944.72;4177062;28;23668;-63
2022/01/24 10:07:39;;;;;;;52.53;19.23;;;;;;;-1.26;67.40;101946.31;4188304;28;20343;-63
2022/01/24 10:10:06;;;;;;;53.97;19.97;;;;;;;-1.13;67.67;101944.28;4169841;28;22555;-67
2022/01/24 10:16:24;;;;;;;53.07;19.20;;;;;;;-1.13;66.99;101937.28;4167319;28;20263;-63
2022/01/24 10:18:09;;;;;;;54.63;19.57;;;;;;;-1.09;66.76;101932.88;4174196;28;20245;-48
2022/01/24 10:20:40;;;;;;;61.27;20.27;;;;;;;-1.24;67.67;101930.56;4154454;28;22343;-64
2022/01/24 10:23:17;;;;;;;54.67;20.23;;;;;;;-1.17;68.05;101930.44;4177276;28;20283;-65
2022/01/24 10:26:02;;;;;;;53.73;19.20;;;;;;;-1.10;67.03;101920.69;4176225;28;21285;-69
2022/01/24 10:28:41;;;;;;;46.93;17.80;;;;;;;-1.08;66.97;101922.41;4171840;28;20632;-66
2022/01/24 10:31:08;;;;;;;47.30;17.67;;;;;;;-0.88;66.65;101918.47;4171478;28;20985;-73
2022/01/24 10:34:02;;;;;;;53.50;18.37;;;;;;;-0.83;65.88;101918.38;4156883;28;20232;-66
2022/01/24 10:36:53;;;;;;;59.73;18.63;;;;;;;-0.76;65.41;101918.19;4163485;28;27203;-65
2022/01/24 10:40:20;;;;;;;49.87;17.77;;;;;;;-0.73;65.65;101914.63;4217619;28;20470;-66
2022/01/24 10:45:12;;;;;;;44.93;17.57;;;;;;;-0.87;65.80;101904.50;4172220;28;20232;-67
2022/01/24 10:47:45;;;;;;;48.07;18.40;;;;;;;-0.93;65.79;101909.88;4172029;28;20609;-65
2022/01/24 10:50:24;;;;;;;47.00;19.63;;;;;;;-0.77;66.76;101903.41;4148971;28;20299;-68
2022/01/24 10:52:52;;;;;;;46.53;18.13;;;;;;;-0.72;66.01;101906.75;4152912;28;20239;-67
2022/01/24 10:55:26;;;;;;;44.53;18.33;;;;;;;-0.67;64.90;101904.03;4189365;28;20244;-71
2022/01/24 10:58:05;;;;;;;46.87;17.83;;;;;;;-0.77;65.38;101902.53;4177541;28;20389;-67
2022/01/24 11:00:33;;;;;;;44.00;16.50;;;;;;;-0.75;65.44;101895.50;4179343;28;20518;-69
2022/01/24 11:03:02;;;;;;;49.57;17.10;;;;;;;-0.66;65.36;101895.28;4173481;28;22687;-67
2022/01/24 11:05:33;;;;;;;48.60;17.67;;;;;;;-0.44;64.76;101899.09;4182209;28;22966;-69
2022/01/24 11:08:09;;;;;;;43.20;16.80;;;;;;;-0.38;64.81;101899.84;4183076;28;20333;-66
2022/01/24 11:10:48;;;;;;;46.67;18.13;;;;;;;-0.46;64.46;101885.22;4168156;28;20230;-66
2022/01/24 11:13:18;;;;;;;46.57;18.03;;;;;;;-0.38;64.45;101884.16;4169344;28;21606;-69
2022/01/24 11:15:55;;;;;;;41.83;16.50;;;;;;;-0.37;64.78;101870.19;4174069;28;22398;-70
2022/01/24 11:18:26;;;;;;;48.47;16.93;;;;;;;-0.39;64.42;101874.59;4179242;28;20237;-69
2022/01/24 11:21:01;;;;;;;46.07;17.00;;;;;;;-0.26;64.17;101862.91;4166074;28;20233;-68
2022/01/24 11:23:28;;;;;;;43.50;16.63;;;;;;;-0.32;63.99;101861.31;4181854;28;20240;-67
2022/01/24 11:25:57;;;;;;;48.13;16.97;;;;;;;-0.44;64.40;101859.03;4191369;28;20464;-67
2022/01/24 11:28:25;;;;;;;46.03;15.57;;;;;;;-0.40;64.48;101855.41;4180426;28;20238;-66
2022/01/24 11:31:02;;;;;;;46.73;15.77;;;;;;;-0.51;64.98;101858.31;4183402;28;20487;-66
2022/01/24 11:33:34;;;;;;;45.63;16.10;;;;;;;-0.43;65.42;101851.13;4189142;28;22905;-69
2022/01/24 11:36:02;;;;;;;42.03;15.73;;;;;;;-0.43;64.88;101845.91;4203760;28;20708;-66
2022/01/24 11:38:42;;;;;;;43.80;15.97;;;;;;;-0.43;65.19;101840.66;4190574;28;21196;-70
2022/01/24 11:41:31;;;;;;;50.07;15.87;;;;;;;-0.39;64.73;101840.59;4172164;28;20236;-69
2022/01/24 11:44:07;;;;;;;39.23;15.23;;;;;;;-0.29;64.70;101847.31;4199713;28;20338;-67
2022/01/24 11:46:48;;;;;;;39.10;15.10;;;;;;;-0.04;64.21;101845.75;4190063;28;20239;-67
2022/01/24 11:49:27;;;;;;;35.93;14.50;;;;;;;-0.06;63.80;101850.16;4181409;28;20239;-67
2022/01/24 11:52:10;;;;;;;45.00;15.43;;;;;;;-0.04;64.65;101847.50;4186082;28;21706;-69
2022/01/24 11:55:01;;;;;;;37.53;14.07;;;;;;;0.09;64.18;101842.78;4178402;28;20237;-64
2022/01/24 11:57:40;;;;;;;44.67;15.77;;;;;;;0.17;64.09;101840.81;4199004;28;20616;-66
2022/01/24 12:00:07;;;;;;;47.70;16.10;;;;;;;0.17;63.73;101836.44;4192741;28;20241;-68
2022/01/24 12:02:57;;;;;;;45.27;15.73;;;;;;;0.16;64.27;101833.84;4164440;28;23296;-69
2022/01/24 12:05:42;;;;;;;49.27;14.70;;;;;;;0.30;63.67;101833.44;4182520;28;20929;-67
2022/01/24 12:08:32;;;;;;;48.33;15.77;;;;;;;0.30;63.79;101831.69;4171687;28;20242;-68
2022/01/24 12:11:21;;;;;;;37.03;14.30;;;;;;;0.28;62.93;101838.75;4174380;28;20391;-67
2022/01/24 12:14:01;;;;;;;44.33;15.80;;;;;;;0.21;63.70;101829.34;4177858;28;20232;-67
2022/01/24 12:16:36;;;;;;;38.63;15.43;;;;;;;0.13;64.78;101828.72;4160596;28;23534;-67
2022/01/24 12:19:06;;;;;;;44.33;15.23;;;;;;;0.18;64.38;101822.44;4188839;28;22070;-68
2022/01/24 12:21:35;;;;;;;42.23;14.93;;;;;;;0.12;64.52;101822.63;4160231;28;20893;-67
2022/01/24 12:24:03;;;;;;;40.07;15.60;;;;;;;0.21;64.49;101824.09;4185477;28;20232;-67
2022/01/24 12:26:48;;;;;;;43.27;15.70;;;;;;;0.23;64.36;101819.69;4192034;28;20666;-67
2022/01/24 12:29:20;;;;;;;45.57;15.70;;;;;;;0.36;64.50;101826.28;4154143;28;20429;-67
2022/01/24 12:31:50;;;;;;;43.23;16.53;;;;;;;0.35;64.72;101814.09;4175559;28;22055;-68
2022/01/24 12:34:28;;;;;;;45.00;15.60;;;;;;;0.35;64.79;101814.09;4188384;28;20245;-67
2022/01/24 12:37:02;;;;;;;49.73;15.83;;;;;;;0.38;64.41;101814.00;4174951;28;25846;-65
2022/01/24 12:39:50;;;;;;;40.63;15.77;;;;;;;0.36;65.04;101804.47;4160521;28;20251;-65
2022/01/24 12:43:02;;;;;;;43.63;15.40;;;;;;;0.39;65.04;101810.47;4172021;28;20233;-68
2022/01/24 12:48:30;;;;;;;39.33;14.90;;;;;;;0.38;64.87;101806.16;4185695;28;20233;-65